• Join FlightAware (Why Join?)
  • Login
  • US Flag 
12:25PM EDT


 

Airport Tracker/Info


-or-


 

Live Flight TrackerFlight Track Log ✈ AAL1326 ✈ 10-May-2013 ✈ KORD - KFLL

Flight Track Log - Related Links

Times and Time Zones

All times are in EDT time to prevent confusion due to time zone crossing. See the AAL1326 flight status page for this flight to view local times or setup timezone preferences in your user account.

Time Position Orientation Groundspeed Altitude Reporting Facility
EDT Latitude Longitude Course Direction KTS MPH feet Rate Location/Type
07:24PM 41.9667 -87.8333 173° South 212 244 2,900  Level Chicago TRACON
07:25PM 41.6672 -87.7169 166° South  Level Estimated
07:25PM 41.8569 -87.7811 160° South 277 319 5,000  Level Chicago Center
07:26PM 41.5623 -87.6540 167° South  Level Estimated
07:26PM 41.7783 -87.7789 179° South 280 322 5,000  Level Chicago Center
07:27PM 41.4574 -87.5913 180° South  Level Estimated
07:27PM 41.6983 -87.7750 178° South 283 326 7,300  Level Chicago Center
07:28PM 41.3525 -87.5289 180° South  Level Estimated
07:28PM 41.6133 -87.7644 175° South 302 348 10,600  Level Chicago Center
07:29PM 41.2527 -87.4697 173° South  Level Estimated
07:29PM 41.5281 -87.7464 171° South 308 354 13,700  Level Chicago Center
07:30PM 41.4375 -87.7281 171° South 320 368 16,000 2,160 Climbing Chicago Center
07:32PM 41.3042 -87.7167 180° South  Level FlightAware Approximate
07:32PM 41.1944 -87.7253 180° South 404 465 20,500  Level Chicago Center
07:33PM 41.0792 -87.7097 174° South 413 475 22,800 1,980 Climbing Chicago Center
07:34PM 40.9628 -87.6936 174° South 421 484 24,600 1,740 Climbing Chicago Center
07:35PM 40.8422 -87.6756 174° South 434 499 26,500 1,860 Climbing Chicago Center
07:36PM 40.7236 -87.6611 175° South 430 495 28,500 1,740 Climbing Chicago Center
07:38PM 40.6083 -87.6447 174° South 421 484 30,100 1,320 Climbing Chicago Center
07:39PM 40.4681 -87.6189 172° South 428 493 31,300 1,380 Climbing Chicago Center
07:40PM 40.3550 -87.5525 156° South 449 517 33,000 780 Climbing Chicago Center
07:41PM 40.2431 -87.4869 156° South 442 509 33,000  Level Chicago Center
07:42PM 40.1231 -87.4156 156° South 441 507 33,000  Level Chicago Center
07:42PM 40.0528 -87.3761 157° South 444 511 33,000  Level Indianapolis Center
07:43PM 39.9408 -87.3086 155° Southeast 446 513 33,000  Level Indianapolis Center
07:44PM 39.8278 -87.2422 156° South 448 516 33,000  Level Indianapolis Center
07:45PM 39.7147 -87.1742 155° Southeast 450 518 33,000  Level Indianapolis Center
07:46PM 39.6014 -87.1075 156° South 453 521 33,000  Level Indianapolis Center
07:47PM 39.4653 -87.0272 156° South 452 520 33,000  Level Indianapolis Center
07:48PM 39.3511 -86.9611 156° South 453 521 33,000  Level Indianapolis Center
07:49PM 39.2375 -86.8947 156° South 451 519 33,000  Level Indianapolis Center
07:50PM 39.1247 -86.8267 155° Southeast 453 521 33,000  Level Indianapolis Center
07:52PM 39.0119 -86.7481 152° Southeast 457 526 33,000  Level Indianapolis Center
07:53PM 38.8981 -86.6711 152° Southeast 457 526 33,000  Level Indianapolis Center
07:54PM 38.7831 -86.5936 152° Southeast 462 532 33,000  Level Indianapolis Center
07:55PM 38.6683 -86.5158 152° Southeast 461 531 33,000  Level Indianapolis Center
07:56PM 38.5528 -86.4389 152° Southeast 462 532 33,000  Level Indianapolis Center
07:57PM 38.4156 -86.3472 152° Southeast 458 527 33,000  Level Indianapolis Center
07:58PM 38.3017 -86.2717 152° Southeast 458 527 33,000  Level Indianapolis Center
07:59PM 38.1886 -86.1958 152° Southeast 457 526 33,000  Level Indianapolis Center
08:00PM 38.0742 -86.1214 153° Southeast 457 526 33,000  Level Indianapolis Center
08:01PM 37.9600 -86.0464 153° Southeast 458 527 33,000 180 Level Indianapolis Center
08:02PM 37.8461 -85.9725 153° Southeast 457 526 33,400 960 Climbing Indianapolis Center
08:03PM 37.7353 -85.9008 153° Southeast 447 514 35,000 780 Climbing Indianapolis Center
08:04PM 37.6242 -85.8289 153° Southeast 447 514 35,000  Level Indianapolis Center
08:05PM 37.5136 -85.7569 153° Southeast 445 512 35,000  Level Indianapolis Center
08:06PM 37.4019 -85.6842 153° Southeast 449 517 35,000  Level Indianapolis Center
08:07PM 37.2808 -85.6081 153° Southeast 452 520 35,000  Level Indianapolis Center
08:08PM 37.1658 -85.5350 153° Southeast 457 526 35,000  Level Indianapolis Center
08:09PM 37.0500 -85.4967 165° South 438 504 35,000  Level Indianapolis Center
08:10PM 36.9242 -85.4558 165° South 443 510 35,000  Level Indianapolis Center
08:11PM 36.8042 -85.4169 165° South 445 512 35,000  Level Indianapolis Center
08:12PM 36.6856 -85.3786 165° South 441 507 35,000  Level Indianapolis Center
08:13PM 36.5664 -85.3408 166° South 442 509 35,000  Level Indianapolis Center
08:14PM 36.4222 -85.2947 166° South 444 511 35,000  Level Indianapolis Center
08:15PM 36.2983 -85.2572 166° South 463 533 35,000  Level Atlanta Center
08:16PM 36.1778 -85.2194 166° South 458 527 35,000  Level Atlanta Center
08:17PM 36.0592 -85.1817 166° South 448 516 35,000  Level Atlanta Center
08:18PM 35.9406 -85.1467 167° South 448 516 35,000  Level Atlanta Center
08:19PM 35.8222 -85.1092 166° South 448 516 35,000  Level Atlanta Center
08:20PM 35.7139 -85.0747 166° South 453 521 35,000  Level Atlanta Center
08:21PM 35.5933 -85.0372 166° South 453 521 35,000  Level Atlanta Center
08:22PM 35.4747 -84.9975 165° South 448 516 35,000  Level Atlanta Center
08:23PM 35.3581 -84.9631 166° South 448 516 35,000  Level Atlanta Center
08:24PM 35.2394 -84.9261 166° South 443 510 35,000  Level Atlanta Center
08:25PM 35.1186 -84.8894 166° South 443 510 35,000  Level Atlanta Center
08:26PM 35.0000 -84.8528 166° South 443 510 35,000  Level Atlanta Center
08:27PM 34.8833 -84.8161 166° South 443 510 35,000  Level Atlanta Center
08:28PM 34.7625 -84.7769 165° South 443 510 35,000  Level Atlanta Center
08:29PM 34.6458 -84.7406 166° South 449 517 35,000  Level Atlanta Center
08:30PM 34.5250 -84.7044 166° South 444 511 35,000  Level Atlanta Center
08:31PM 34.4022 -84.6681 166° South 449 517 35,000  Level Atlanta Center
08:32PM 34.2811 -84.6322 166° South 449 517 35,000  Level Atlanta Center
08:33PM 34.1603 -84.5961 166° South 449 517 35,000  Level Atlanta Center
08:34PM 34.0353 -84.5603 167° South 454 522 35,000  Level Atlanta Center
08:35PM 33.9103 -84.5194 165° South 446 513 35,000  Level Atlanta Center
08:36PM 33.7808 -84.4836 167° South 451 519 35,000  Level Atlanta Center
08:37PM 33.6619 -84.4481 166° South 451 519 35,000  Level Atlanta Center
08:38PM 33.5517 -84.4053 162° South 451 519 35,000  Level Atlanta Center
08:39PM 33.4347 -84.3550 160° South 458 527 35,000  Level Atlanta Center
08:40PM 33.3158 -84.3072 161° South 458 527 35,000  Level Atlanta Center
08:41PM 33.1972 -84.2572 161° South 453 521 35,000  Level Atlanta Center
08:42PM 33.0781 -84.2075 161° South 453 521 35,000  Level Atlanta Center
08:43PM 32.9614 -84.1578 160° South 453 521 35,000  Level Atlanta Center
08:44PM 32.8403 -84.1106 162° South 453 521 35,000  Level Atlanta Center
08:45PM 32.7214 -84.0561 159° South 453 521 35,000  Level Atlanta Center
08:46PM 32.6025 -84.0019 159° South 453 521 35,000  Level Atlanta Center
08:47PM 32.4856 -83.9453 158° South 453 521 35,000  Level Atlanta Center
08:48PM 32.3644 -83.8914 159° South 458 527 35,000  Level Atlanta Center
08:50PM 32.1008 -83.7681 158° South 494 568 35,000  Level Jacksonville Center
08:51PM 31.9761 -83.7106 159° South 488 562 35,000 -60 Level Jacksonville Center
08:52PM 31.8678 -83.6583 158° South 482 555 34,900 -60 Descending Jacksonville Center
08:53PM 31.7428 -83.6036 160° South 476 548 34,900  Level Jacksonville Center
08:54PM 31.6136 -83.5439 159° South 486 559 35,000  Climbing Jacksonville Center
08:55PM 31.4886 -83.4919 160° South 486 559 35,000  Level Jacksonville Center
08:56PM 31.3617 -83.4350 159° South 486 559 35,000  Level Jacksonville Center
08:57PM 31.2364 -83.3786 159° South 486 559 35,000  Level Jacksonville Center
08:58PM 31.1114 -83.3244 160° South 486 559 35,000  Level Jacksonville Center
08:59PM 30.9864 -83.2683 159° South 486 559 35,000  Level Jacksonville Center
09:00PM 30.8653 -83.2144 159° South 480 552 35,000 -60 Level Jacksonville Center
09:01PM 30.7486 -83.1608 158° South 468 539 34,900  Descending Jacksonville Center
09:02PM 30.6297 -83.1097 160° South 463 533 35,000  Climbing Jacksonville Center
09:03PM 30.5108 -83.0564 159° South 458 527 35,000  Level Jacksonville Center
09:04PM 30.3917 -83.0033 159° South 458 527 35,000  Level Jacksonville Center
09:05PM 30.2706 -82.9528 160° South 458 527 35,000  Level Jacksonville Center
09:06PM 30.1517 -82.8997 159° South 458 527 35,000  Level Jacksonville Center
09:07PM 30.0347 -82.8469 159° South 458 527 35,000  Level Jacksonville Center
09:08PM 29.9117 -82.7992 161° South 458 527 35,000  Level Jacksonville Center
09:09PM 29.7925 -82.7489 160° South 458 527 35,000 -60 Level Jacksonville Center
09:10PM 29.6756 -82.6967 159° South 458 527 34,900  Descending Jacksonville Center
09:11PM 29.5461 -82.6394 159° South 453 521 35,000  Climbing Jacksonville Center
09:12PM 29.4247 -82.5992 164° South 453 521 35,000  Level Jacksonville Center
09:13PM 29.3017 -82.5783 172° South 448 516 35,000  Level Jacksonville Center
09:14PM 29.1806 -82.5525 169° South 448 516 35,000  Level Jacksonville Center
09:15PM 29.0572 -82.5292 171° South 448 516 35,000  Level Jacksonville Center
09:16PM 28.9342 -82.5036 170° South 448 516 35,000  Level Jacksonville Center
09:17PM 28.8108 -82.4781 170° South 448 516 35,000 -60 Level Jacksonville Center
09:18PM 28.6856 -82.4547 171° South 448 516 34,900  Descending Jacksonville Center
09:19PM 28.5664 -82.4317 170° South 448 516 35,000  Climbing Jacksonville Center
09:21PM 28.3175 -82.3839 170° South 451 519 35,000  Level Miami Center
09:22PM 28.1933 -82.3589 170° South 456 525 35,000  Level Miami Center
09:23PM 28.0692 -82.3317 169° South 456 525 35,000  Level Miami Center
09:24PM 27.9489 -82.3117 172° South 451 519 35,000 -300 Level Miami Center
09:25PM 27.8247 -82.2847 169° South 451 519 34,400 -840 Descending Miami Center
09:26PM 27.6942 -82.2572 169° South 443 510 33,400 -1,020 Descending Miami Center
09:27PM 27.5700 -82.2328 170° South 450 518 32,400 -960 Descending Miami Center
09:28PM 27.4561 -82.2111 170° South 460 529 31,500 -960 Descending Miami Center
09:29PM 27.3194 -82.1836 170° South 460 529 30,500 -1,020 Descending Miami Center
09:30PM 27.1950 -82.1592 170° South 460 529 29,500 -960 Descending Miami Center
09:31PM 27.0867 -82.0936 152° Southeast 449 517 28,600 -1,020 Descending Miami Center
09:32PM 26.9897 -82.0031 140° Southeast 449 517 27,500 -1,080 Descending Miami Center
09:33PM 26.8928 -81.9128 140° Southeast 454 522 26,500 -960 Descending Miami Center
09:34PM 26.8150 -81.8117 131° Southeast 460 529 25,600 -1,380 Descending Miami Center
09:35PM 26.7267 -81.7081 134° Southeast 460 529 23,800 -1,860 Descending Miami Center
09:36PM 26.6361 -81.5975 132° Southeast 450 518 21,900 -1,920 Descending Miami Center
09:37PM 26.5597 -81.5061 133° Southeast 437 503 20,000 -2,100 Descending Miami Center
09:38PM 26.4672 -81.3981 134° Southeast 437 503 17,800 -2,100 Descending Miami Center
09:39PM 26.3886 -81.3022 132° Southeast 430 495 15,900 -2,160 Descending Miami Center
09:40PM 26.3119 -81.2136 134° Southeast 416 479 13,500 -2,280 Descending Miami Center
09:41PM 26.2775 -81.1800 139° Southeast 374 430 12,700 -1,920 Descending Miami Center
09:41PM 26.2514 -81.1489 133° Southeast 355 409 11,900 -1,740 Descending Miami Center
09:42PM 26.1828 -81.0631 132° Southeast 311 358 10,100 -1,620 Descending Miami Center
09:43PM 26.1242 -80.9986 135° Southeast 297 342 8,500 -1,080 Descending Miami Center
09:44PM 26.0992 -80.9169 109° East 287 330 8,000 -960 Descending Miami Center
09:45PM 26.0786 -80.8306 105° East 271 312 6,600 -1,080 Descending Miami Center
09:46PM 26.0789 -80.7472 90° East 271 312 5,900 -360 Descending Miami Center
09:47PM 26.0789 -80.6642 90° East 266 306 5,900 -180 Level Miami Center
09:48PM 26.0767 -80.5900 92° East 269 310 5,600 -660 Descending Miami Center
09:49PM 26.0767 -80.5092 90° East 238 274 4,700 -720 Descending Miami Center
09:50PM 26.0761 -80.4372 90° East 228 262 4,200 -540 Descending Miami Center